sensor_id;sensor_type;location;lat;lon;timestamp;pressure;altitude;pressure_sealevel;temperature;humidity
44044;BME280;29709;52.396;16.796;2024-03-22T00:01:40;102025.15;;;11.46;86.86
44044;BME280;29709;52.396;16.796;2024-03-22T00:04:53;102022.26;;;11.38;88.30
44044;BME280;29709;52.396;16.796;2024-03-22T00:08:07;102021.97;;;11.41;87.02
44044;BME280;29709;52.396;16.796;2024-03-22T00:11:22;102022.83;;;11.32;86.46
44044;BME280;29709;52.396;16.796;2024-03-22T00:14:36;102027.02;;;11.16;87.25
44044;BME280;29709;52.396;16.796;2024-03-22T00:17:49;102016.73;;;11.09;87.37
44044;BME280;29709;52.396;16.796;2024-03-22T00:21:03;101998.47;;;11.08;88.01
44044;BME280;29709;52.396;16.796;2024-03-22T00:24:16;102002.65;;;11.02;88.76
44044;BME280;29709;52.396;16.796;2024-03-22T00:27:29;102001.78;;;11.02;88.94
44044;BME280;29709;52.396;16.796;2024-03-22T00:30:43;101994.24;;;11.04;87.78
44044;BME280;29709;52.396;16.796;2024-03-22T00:33:56;101990.08;;;11.09;87.84
44044;BME280;29709;52.396;16.796;2024-03-22T00:37:09;101982.39;;;11.13;89.72
44044;BME280;29709;52.396;16.796;2024-03-22T00:40:22;101980.25;;;11.16;87.90
44044;BME280;29709;52.396;16.796;2024-03-22T00:43:36;101986.30;;;11.10;88.89
44044;BME280;29709;52.396;16.796;2024-03-22T00:46:49;101986.75;;;11.06;87.49
44044;BME280;29709;52.396;16.796;2024-03-22T00:50:02;101986.73;;;10.96;87.93
44044;BME280;29709;52.396;16.796;2024-03-22T00:53:17;101993.80;;;10.89;87.84
44044;BME280;29709;52.396;16.796;2024-03-22T00:56:30;101988.85;;;10.83;88.52
44044;BME280;29709;52.396;16.796;2024-03-22T00:59:44;101985.81;;;10.76;88.63
44044;BME280;29709;52.396;16.796;2024-03-22T01:02:57;101984.65;;;10.79;88.17
44044;BME280;29709;52.396;16.796;2024-03-22T01:06:10;101975.07;;;10.73;89.61
44044;BME280;29709;52.396;16.796;2024-03-22T01:09:23;101978.72;;;10.74;88.26
44044;BME280;29709;52.396;16.796;2024-03-22T01:12:37;101984.34;;;10.72;89.05
44044;BME280;29709;52.396;16.796;2024-03-22T01:15:52;101979.85;;;10.71;87.96
44044;BME280;29709;52.396;16.796;2024-03-22T01:19:06;101985.49;;;10.69;89.69
44044;BME280;29709;52.396;16.796;2024-03-22T01:22:19;101986.37;;;10.70;88.20
44044;BME280;29709;52.396;16.796;2024-03-22T01:25:33;101984.92;;;10.66;88.58
44044;BME280;29709;52.396;16.796;2024-03-22T01:28:46;101987.96;;;10.73;87.96
44044;BME280;29709;52.396;16.796;2024-03-22T01:32:01;101984.08;;;10.75;88.21
44044;BME280;29709;52.396;16.796;2024-03-22T01:35:15;101984.48;;;10.70;89.14
44044;BME280;29709;52.396;16.796;2024-03-22T01:38:29;101984.92;;;10.66;87.53
44044;BME280;29709;52.396;16.796;2024-03-22T01:41:43;101982.02;;;10.67;88.34
44044;BME280;29709;52.396;16.796;2024-03-22T01:44:57;101986.65;;;10.67;88.76
44044;BME280;29709;52.396;16.796;2024-03-22T01:48:13;101990.99;;;10.69;87.98
44044;BME280;29709;52.396;16.796;2024-03-22T01:51:28;101979.41;;;10.66;87.82
44044;BME280;29709;52.396;16.796;2024-03-22T01:54:41;101991.83;;;10.60;88.38
44044;BME280;29709;52.396;16.796;2024-03-22T01:57:55;101985.76;;;10.57;87.64
44044;BME280;29709;52.396;16.796;2024-03-22T02:01:09;101977.36;;;10.58;88.86
44044;BME280;29709;52.396;16.796;2024-03-22T02:04:22;101984.73;;;10.58;89.24
44044;BME280;29709;52.396;16.796;2024-03-22T02:07:35;101971.57;;;10.61;88.59
44044;BME280;29709;52.396;16.796;2024-03-22T02:10:48;101968.97;;;10.60;87.63
44044;BME280;29709;52.396;16.796;2024-03-22T02:14:02;101970.13;;;10.57;87.94
44044;BME280;29709;52.396;16.796;2024-03-22T02:17:15;101958.98;;;10.59;88.06
44044;BME280;29709;52.396;16.796;2024-03-22T02:20:28;101965.05;;;10.62;87.50
44044;BME280;29709;52.396;16.796;2024-03-22T02:23:42;101975.33;;;10.60;87.84
44044;BME280;29709;52.396;16.796;2024-03-22T02:26:55;101955.95;;;10.62;88.04
44044;BME280;29709;52.396;16.796;2024-03-22T02:30:08;101967.09;;;10.60;87.01
44044;BME280;29709;52.396;16.796;2024-03-22T02:33:22;101957.83;;;10.61;86.63
44044;BME280;29709;52.396;16.796;2024-03-22T02:36:35;101954.20;;;10.61;87.36
44044;BME280;29709;52.396;16.796;2024-03-22T02:39:49;101952.05;;;10.55;86.53
44044;BME280;29709;52.396;16.796;2024-03-22T02:43:03;101963.01;;;10.45;86.97
44044;BME280;29709;52.396;16.796;2024-03-22T02:46:16;101962.39;;;10.41;86.90
44044;BME280;29709;52.396;16.796;2024-03-22T02:49:29;101950.23;;;10.34;87.03
44044;BME280;29709;52.396;16.796;2024-03-22T02:52:43;101957.04;;;10.40;87.02
44044;BME280;29709;52.396;16.796;2024-03-22T02:55:59;101957.18;;;10.38;87.15
44044;BME280;29709;52.396;16.796;2024-03-22T02:59:13;101941.99;;;10.34;86.80
44044;BME280;29709;52.396;16.796;2024-03-22T03:02:26;101944.99;;;10.31;86.37
44044;BME280;29709;52.396;16.796;2024-03-22T03:05:39;101948.76;;;10.30;86.44
44044;BME280;29709;52.396;16.796;2024-03-22T03:08:54;101955.01;;;10.32;86.73
44044;BME280;29709;52.396;16.796;2024-03-22T03:12:07;101960.61;;;10.31;86.09
44044;BME280;29709;52.396;16.796;2024-03-22T03:15:20;101958.43;;;10.25;85.17
44044;BME280;29709;52.396;16.796;2024-03-22T03:18:34;101957.42;;;10.26;85.36
44044;BME280;29709;52.396;16.796;2024-03-22T03:21:50;101957.34;;;10.16;84.82
44044;BME280;29709;52.396;16.796;2024-03-22T03:25:04;101957.02;;;10.09;84.99
44044;BME280;29709;52.396;16.796;2024-03-22T03:28:17;101957.83;;;10.00;84.84
44044;BME280;29709;52.396;16.796;2024-03-22T03:31:31;101959.69;;;9.90;84.49
44044;BME280;29709;52.396;16.796;2024-03-22T03:34:45;101948.65;;;9.80;84.53
44044;BME280;29709;52.396;16.796;2024-03-22T03:37:59;101962.17;;;9.72;84.79
44044;BME280;29709;52.396;16.796;2024-03-22T03:41:12;101954.59;;;9.65;85.60
44044;BME280;29709;52.396;16.796;2024-03-22T03:44:25;101956.19;;;9.67;84.83
44044;BME280;29709;52.396;16.796;2024-03-22T03:47:39;101948.72;;;9.69;85.12
44044;BME280;29709;52.396;16.796;2024-03-22T03:50:54;101945.97;;;9.69;85.54
44044;BME280;29709;52.396;16.796;2024-03-22T03:54:11;101954.07;;;9.71;85.22
44044;BME280;29709;52.396;16.796;2024-03-22T03:57:25;101956.67;;;9.72;85.53
44044;BME280;29709;52.396;16.796;2024-03-22T04:00:38;101958.13;;;9.76;84.42
44044;BME280;29709;52.396;16.796;2024-03-22T04:03:51;101956.40;;;9.75;84.43
44044;BME280;29709;52.396;16.796;2024-03-22T04:07:04;101961.30;;;9.72;85.15
44044;BME280;29709;52.396;16.796;2024-03-22T04:10:18;101959.70;;;9.69;84.56
44044;BME280;29709;52.396;16.796;2024-03-22T04:13:31;101957.34;;;9.65;84.47
44044;BME280;29709;52.396;16.796;2024-03-22T04:16:44;101960.61;;;9.59;84.47
44044;BME280;29709;52.396;16.796;2024-03-22T04:19:58;101963.24;;;9.60;84.44
44044;BME280;29709;52.396;16.796;2024-03-22T04:23:11;101958.41;;;9.52;84.40
44044;BME280;29709;52.396;16.796;2024-03-22T04:26:24;101944.90;;;9.40;84.58
44044;BME280;29709;52.396;16.796;2024-03-22T04:29:37;101951.71;;;9.45;84.94
44044;BME280;29709;52.396;16.796;2024-03-22T04:32:51;101951.57;;;9.47;85.17
44044;BME280;29709;52.396;16.796;2024-03-22T04:36:04;101938.62;;;9.49;84.88
44044;BME280;29709;52.396;16.796;2024-03-22T04:39:22;101936.59;;;9.51;85.20
44044;BME280;29709;52.396;16.796;2024-03-22T04:42:35;101937.46;;;9.51;85.36
44044;BME280;29709;52.396;16.796;2024-03-22T04:45:48;101931.70;;;9.54;84.74
44044;BME280;29709;52.396;16.796;2024-03-22T04:49:03;101934.30;;;9.56;84.19
44044;BME280;29709;52.396;16.796;2024-03-22T04:52:16;101937.46;;;9.51;84.95
44044;BME280;29709;52.396;16.796;2024-03-22T04:55:30;101936.18;;;9.55;85.25
44044;BME280;29709;52.396;16.796;2024-03-22T04:58:43;101934.16;;;9.58;84.39
44044;BME280;29709;52.396;16.796;2024-03-22T05:01:56;101922.59;;;9.54;84.63
44044;BME280;29709;52.396;16.796;2024-03-22T05:05:09;101920.72;;;9.54;84.67
44044;BME280;29709;52.396;16.796;2024-03-22T05:08:23;101918.77;;;9.66;84.73
44044;BME280;29709;52.396;16.796;2024-03-22T05:11:36;101925.75;;;9.70;84.50
44044;BME280;29709;52.396;16.796;2024-03-22T05:14:49;101918.63;;;9.68;85.03
44044;BME280;29709;52.396;16.796;2024-03-22T05:18:03;101919.38;;;9.70;85.26
44044;BME280;29709;52.396;16.796;2024-03-22T05:21:17;101925.47;;;9.73;84.55
44044;BME280;29709;52.396;16.796;2024-03-22T05:24:30;101919.98;;;9.73;84.90
44044;BME280;29709;52.396;16.796;2024-03-22T05:27:44;101916.67;;;9.79;84.71
44044;BME280;29709;52.396;16.796;2024-03-22T05:30:58;101917.01;;;9.86;84.29
44044;BME280;29709;52.396;16.796;2024-03-22T05:34:11;101909.78;;;9.85;83.51
44044;BME280;29709;52.396;16.796;2024-03-22T05:37:24;101915.55;;;9.82;83.93
44044;BME280;29709;52.396;16.796;2024-03-22T05:40:37;101908.86;;;9.75;83.78
44044;BME280;29709;52.396;16.796;2024-03-22T05:43:53;101917.51;;;9.70;83.89
44044;BME280;29709;52.396;16.796;2024-03-22T05:47:07;101919.49;;;9.68;84.07
44044;BME280;29709;52.396;16.796;2024-03-22T05:50:20;101916.17;;;9.65;84.11
44044;BME280;29709;52.396;16.796;2024-03-22T05:53:33;101911.82;;;9.62;84.73
44044;BME280;29709;52.396;16.796;2024-03-22T05:56:46;101916.30;;;9.63;84.50
44044;BME280;29709;52.396;16.796;2024-03-22T06:00:00;101916.03;;;9.66;84.36
44044;BME280;29709;52.396;16.796;2024-03-22T06:03:13;101907.94;;;9.65;85.46
44044;BME280;29709;52.396;16.796;2024-03-22T06:06:26;101913.90;;;9.70;84.77
44044;BME280;29709;52.396;16.796;2024-03-22T06:09:40;101907.13;;;9.74;84.57
44044;BME280;29709;52.396;16.796;2024-03-22T06:13:00;101906.31;;;9.83;85.20
44044;BME280;29709;52.396;16.796;2024-03-22T06:16:13;101917.48;;;9.91;84.34
44044;BME280;29709;52.396;16.796;2024-03-22T06:19:26;101913.72;;;9.92;84.56
44044;BME280;29709;52.396;16.796;2024-03-22T06:22:40;101906.27;;;10.04;83.87
44044;BME280;29709;52.396;16.796;2024-03-22T06:25:56;101895.13;;;10.05;83.97
44044;BME280;29709;52.396;16.796;2024-03-22T06:29:10;101898.46;;;10.09;83.73
44044;BME280;29709;52.396;16.796;2024-03-22T06:32:23;101886.21;;;10.13;83.58
44044;BME280;29709;52.396;16.796;2024-03-22T06:35:36;101889.39;;;10.18;83.63
44044;BME280;29709;52.396;16.796;2024-03-22T06:38:49;101889.83;;;10.13;83.71
44044;BME280;29709;52.396;16.796;2024-03-22T06:42:03;101897.45;;;10.10;83.93
44044;BME280;29709;52.396;16.796;2024-03-22T06:45:16;101894.98;;;10.07;83.90
44044;BME280;29709;52.396;16.796;2024-03-22T06:48:30;101886.02;;;10.05;83.91
44044;BME280;29709;52.396;16.796;2024-03-22T06:51:43;101881.26;;;10.07;84.23
44044;BME280;29709;52.396;16.796;2024-03-22T06:54:56;101864.20;;;10.03;83.49
44044;BME280;29709;52.396;16.796;2024-03-22T06:58:10;101867.34;;;9.99;83.38
44044;BME280;29709;52.396;16.796;2024-03-22T07:01:23;101863.29;;;9.93;83.18
44044;BME280;29709;52.396;16.796;2024-03-22T07:04:36;101865.89;;;9.95;83.28
44044;BME280;29709;52.396;16.796;2024-03-22T07:07:50;101868.21;;;9.99;83.91
44044;BME280;29709;52.396;16.796;2024-03-22T07:11:06;101861.88;;;10.08;84.50
44044;BME280;29709;52.396;16.796;2024-03-22T07:14:21;101860.62;;;10.12;83.25
44044;BME280;29709;52.396;16.796;2024-03-22T07:17:38;101860.15;;;10.07;82.86
44044;BME280;29709;52.396;16.796;2024-03-22T07:20:51;101849.48;;;10.14;83.38
44044;BME280;29709;52.396;16.796;2024-03-22T07:24:05;101853.16;;;10.24;83.15
44044;BME280;29709;52.396;16.796;2024-03-22T07:27:18;101848.96;;;10.30;82.72
44044;BME280;29709;52.396;16.796;2024-03-22T07:30:31;101848.84;;;10.41;82.62
44044;BME280;29709;52.396;16.796;2024-03-22T07:33:44;101843.23;;;10.43;82.32
44044;BME280;29709;52.396;16.796;2024-03-22T07:36:58;101842.79;;;10.47;82.22
44044;BME280;29709;52.396;16.796;2024-03-22T07:40:11;101834.98;;;10.52;81.94
44044;BME280;29709;52.396;16.796;2024-03-22T07:43:25;101833.84;;;10.55;82.25
44044;BME280;29709;52.396;16.796;2024-03-22T07:46:38;101834.55;;;10.47;81.55
44044;BME280;29709;52.396;16.796;2024-03-22T07:49:51;101819.63;;;10.40;81.79
44044;BME280;29709;52.396;16.796;2024-03-22T07:53:05;101822.98;;;10.44;82.24
44044;BME280;29709;52.396;16.796;2024-03-22T07:56:18;101822.11;;;10.43;81.86
44044;BME280;29709;52.396;16.796;2024-03-22T07:59:32;101806.91;;;10.49;82.16
44044;BME280;29709;52.396;16.796;2024-03-22T08:02:45;101818.77;;;10.49;81.76
44044;BME280;29709;52.396;16.796;2024-03-22T08:05:58;101811.41;;;10.69;82.10
44044;BME280;29709;52.396;16.796;2024-03-22T08:09:11;101801.58;;;10.86;81.43
44044;BME280;29709;52.396;16.796;2024-03-22T08:12:24;101806.32;;;11.03;80.91
44044;BME280;29709;52.396;16.796;2024-03-22T08:15:37;101808.78;;;11.16;80.33
44044;BME280;29709;52.396;16.796;2024-03-22T08:18:51;101815.27;;;11.15;79.67
44044;BME280;29709;52.396;16.796;2024-03-22T08:22:04;101805.73;;;11.09;79.60
44044;BME280;29709;52.396;16.796;2024-03-22T08:25:18;101808.90;;;11.14;79.56
44044;BME280;29709;52.396;16.796;2024-03-22T08:28:33;101809.75;;;11.24;80.23
44044;BME280;29709;52.396;16.796;2024-03-22T08:31:46;101801.17;;;11.47;78.94
44044;BME280;29709;52.396;16.796;2024-03-22T08:34:59;101793.81;;;11.38;78.29
44044;BME280;29709;52.396;16.796;2024-03-22T08:38:12;101793.83;;;11.28;78.06
44044;BME280;29709;52.396;16.796;2024-03-22T08:41:27;101784.27;;;11.22;78.56
44044;BME280;29709;52.396;16.796;2024-03-22T08:44:41;101795.82;;;11.36;79.26
44044;BME280;29709;52.396;16.796;2024-03-22T08:47:54;101785.92;;;11.52;78.76
44044;BME280;29709;52.396;16.796;2024-03-22T08:51:07;101778.18;;;11.66;78.01
44044;BME280;29709;52.396;16.796;2024-03-22T08:54:20;101776.91;;;11.60;77.60
44044;BME280;29709;52.396;16.796;2024-03-22T08:57:33;101771.80;;;11.65;77.49
44044;BME280;29709;52.396;16.796;2024-03-22T09:00:47;101765.15;;;11.68;77.79
44044;BME280;29709;52.396;16.796;2024-03-22T09:04:00;101762.80;;;11.73;77.67
44044;BME280;29709;52.396;16.796;2024-03-22T09:07:13;101759.44;;;11.79;77.14
44044;BME280;29709;52.396;16.796;2024-03-22T09:10:26;101748.91;;;11.65;76.50
44044;BME280;29709;52.396;16.796;2024-03-22T09:13:40;101743.13;;;11.68;77.20
44044;BME280;29709;52.396;16.796;2024-03-22T09:16:53;101733.02;;;11.86;77.84
44044;BME280;29709;52.396;16.796;2024-03-22T09:20:07;101727.98;;;12.09;77.40
44044;BME280;29709;52.396;16.796;2024-03-22T09:23:21;101724.77;;;12.31;77.06
44044;BME280;29709;52.396;16.796;2024-03-22T09:26:34;101719.55;;;12.46;75.96
44044;BME280;29709;52.396;16.796;2024-03-22T09:29:48;101722.59;;;12.61;74.99
44044;BME280;29709;52.396;16.796;2024-03-22T09:33:02;101709.54;;;12.45;74.31
44044;BME280;29709;52.396;16.796;2024-03-22T09:36:16;101712.22;;;12.55;74.61
44044;BME280;29709;52.396;16.796;2024-03-22T09:39:29;101704.88;;;12.63;74.09
44044;BME280;29709;52.396;16.796;2024-03-22T09:42:47;101709.58;;;12.71;73.91
44044;BME280;29709;52.396;16.796;2024-03-22T09:46:02;101715.08;;;12.89;73.79
44044;BME280;29709;52.396;16.796;2024-03-22T09:49:15;101711.07;;;13.09;73.09
44044;BME280;29709;52.396;16.796;2024-03-22T09:52:30;101703.72;;;13.18;71.83
44044;BME280;29709;52.396;16.796;2024-03-22T09:55:48;101695.01;;;13.31;72.26
44044;BME280;29709;52.396;16.796;2024-03-22T09:59:01;101691.65;;;13.45;71.17
44044;BME280;29709;52.396;16.796;2024-03-22T10:02:16;101684.54;;;13.42;70.95
44044;BME280;29709;52.396;16.796;2024-03-22T10:05:31;101683.59;;;13.60;71.35
44044;BME280;29709;52.396;16.796;2024-03-22T10:08:44;101670.66;;;13.60;69.97
44044;BME280;29709;52.396;16.796;2024-03-22T10:11:58;101664.77;;;13.55;71.20
44044;BME280;29709;52.396;16.796;2024-03-22T10:15:12;101661.88;;;13.73;70.78
44044;BME280;29709;52.396;16.796;2024-03-22T10:18:26;101653.42;;;13.66;69.78
44044;BME280;29709;52.396;16.796;2024-03-22T10:21:39;101654.55;;;13.47;69.39
44044;BME280;29709;52.396;16.796;2024-03-22T10:24:52;101656.41;;;13.39;69.55
44044;BME280;29709;52.396;16.796;2024-03-22T10:28:06;101643.77;;;13.28;69.60
44044;BME280;29709;52.396;16.796;2024-03-22T10:31:19;101645.36;;;13.13;69.97
44044;BME280;29709;52.396;16.796;2024-03-22T10:34:34;101644.57;;;13.20;70.72
44044;BME280;29709;52.396;16.796;2024-03-22T10:37:49;101635.27;;;13.21;70.55
44044;BME280;29709;52.396;16.796;2024-03-22T10:41:03;101621.16;;;13.24;70.52
44044;BME280;29709;52.396;16.796;2024-03-22T10:44:18;101616.89;;;13.38;71.44
44044;BME280;29709;52.396;16.796;2024-03-22T10:47:33;101613.44;;;13.36;72.11
44044;BME280;29709;52.396;16.796;2024-03-22T10:50:47;101603.05;;;13.30;72.57
44044;BME280;29709;52.396;16.796;2024-03-22T10:54:03;101607.05;;;13.36;72.76
44044;BME280;29709;52.396;16.796;2024-03-22T10:57:18;101610.54;;;13.46;72.30
44044;BME280;29709;52.396;16.796;2024-03-22T11:00:36;101600.04;;;13.57;72.41
44044;BME280;29709;52.396;16.796;2024-03-22T11:03:49;101595.01;;;13.53;70.67
44044;BME280;29709;52.396;16.796;2024-03-22T11:07:03;101593.38;;;13.26;70.72
44044;BME280;29709;52.396;16.796;2024-03-22T11:10:16;101593.95;;;13.12;71.87
44044;BME280;29709;52.396;16.796;2024-03-22T11:13:35;101587.41;;;13.13;73.35
44044;BME280;29709;52.396;16.796;2024-03-22T11:16:49;101594.17;;;13.18;73.98
44044;BME280;29709;52.396;16.796;2024-03-22T11:20:02;101587.65;;;13.19;74.07
44044;BME280;29709;52.396;16.796;2024-03-22T11:23:16;101579.03;;;13.22;74.84
44044;BME280;29709;52.396;16.796;2024-03-22T11:26:30;101577.13;;;13.23;74.27
44044;BME280;29709;52.396;16.796;2024-03-22T11:29:44;101565.87;;;13.16;74.82
44044;BME280;29709;52.396;16.796;2024-03-22T11:33:03;101569.84;;;13.14;74.44
44044;BME280;29709;52.396;16.796;2024-03-22T11:36:17;101547.90;;;13.12;73.42
44044;BME280;29709;52.396;16.796;2024-03-22T11:39:30;101523.58;;;13.08;73.75
44044;BME280;29709;52.396;16.796;2024-03-22T11:42:49;101532.06;;;13.14;74.32
44044;BME280;29709;52.396;16.796;2024-03-22T11:46:04;101532.27;;;13.21;74.45
44044;BME280;29709;52.396;16.796;2024-03-22T11:49:17;101522.82;;;13.23;74.57
44044;BME280;29709;52.396;16.796;2024-03-22T11:52:31;101520.67;;;13.17;74.56
44044;BME280;29709;52.396;16.796;2024-03-22T11:55:45;101515.12;;;13.09;73.95
44044;BME280;29709;52.396;16.796;2024-03-22T11:58:58;101507.16;;;12.98;74.59
44044;BME280;29709;52.396;16.796;2024-03-22T12:02:13;101507.50;;;12.95;74.40
44044;BME280;29709;52.396;16.796;2024-03-22T12:05:29;101498.01;;;12.97;74.77
44044;BME280;29709;52.396;16.796;2024-03-22T12:08:44;101488.35;;;13.01;74.47
44044;BME280;29709;52.396;16.796;2024-03-22T12:11:57;101490.26;;;13.01;74.33
44044;BME280;29709;52.396;16.796;2024-03-22T12:15:10;101490.12;;;13.03;74.98
44044;BME280;29709;52.396;16.796;2024-03-22T12:18:24;101482.04;;;13.17;75.09
44044;BME280;29709;52.396;16.796;2024-03-22T12:21:37;101480.02;;;13.27;74.42
44044;BME280;29709;52.396;16.796;2024-03-22T12:24:51;101464.98;;;13.22;74.00
44044;BME280;29709;52.396;16.796;2024-03-22T12:28:04;101466.03;;;13.21;73.48
44044;BME280;29709;52.396;16.796;2024-03-22T12:31:18;101464.96;;;13.14;73.25
44044;BME280;29709;52.396;16.796;2024-03-22T12:34:32;101455.30;;;13.18;73.16
44044;BME280;29709;52.396;16.796;2024-03-22T12:37:46;101453.97;;;13.30;73.15
44044;BME280;29709;52.396;16.796;2024-03-22T12:40:59;101441.54;;;13.42;72.01
44044;BME280;29709;52.396;16.796;2024-03-22T12:44:13;101430.84;;;13.31;71.86
44044;BME280;29709;52.396;16.796;2024-03-22T12:47:26;101437.57;;;13.28;71.05
44044;BME280;29709;52.396;16.796;2024-03-22T12:50:39;101432.90;;;13.21;71.63
44044;BME280;29709;52.396;16.796;2024-03-22T12:53:53;101424.45;;;13.22;71.70
44044;BME280;29709;52.396;16.796;2024-03-22T12:57:08;101423.45;;;13.23;71.81
44044;BME280;29709;52.396;16.796;2024-03-22T13:00:21;101418.06;;;13.22;71.18
44044;BME280;29709;52.396;16.796;2024-03-22T13:03:35;101410.64;;;13.22;70.73
44044;BME280;29709;52.396;16.796;2024-03-22T13:06:48;101405.10;;;13.14;70.74
44044;BME280;29709;52.396;16.796;2024-03-22T13:10:01;101407.69;;;13.16;71.26
44044;BME280;29709;52.396;16.796;2024-03-22T13:13:14;101401.85;;;13.19;71.28
44044;BME280;29709;52.396;16.796;2024-03-22T13:16:29;101403.95;;;13.25;71.53
44044;BME280;29709;52.396;16.796;2024-03-22T13:19:42;101390.83;;;13.27;71.03
44044;BME280;29709;52.396;16.796;2024-03-22T13:22:56;101378.56;;;13.29;71.15
44044;BME280;29709;52.396;16.796;2024-03-22T13:26:09;101368.76;;;13.35;71.37
44044;BME280;29709;52.396;16.796;2024-03-22T13:29:23;101366.31;;;13.40;71.18
44044;BME280;29709;52.396;16.796;2024-03-22T13:32:39;101371.84;;;13.40;71.14
44044;BME280;29709;52.396;16.796;2024-03-22T13:35:52;101378.41;;;13.47;70.98
44044;BME280;29709;52.396;16.796;2024-03-22T13:39:05;101370.27;;;13.54;71.51
44044;BME280;29709;52.396;16.796;2024-03-22T13:42:19;101367.33;;;13.64;70.27
44044;BME280;29709;52.396;16.796;2024-03-22T13:45:38;101357.12;;;13.72;70.30
44044;BME280;29709;52.396;16.796;2024-03-22T13:48:51;101348.15;;;13.78;69.69
44044;BME280;29709;52.396;16.796;2024-03-22T13:52:04;101333.77;;;13.91;69.04
44044;BME280;29709;52.396;16.796;2024-03-22T13:55:18;101325.18;;;13.86;68.84
44044;BME280;29709;52.396;16.796;2024-03-22T13:58:31;101324.14;;;13.87;68.81
44044;BME280;29709;52.396;16.796;2024-03-22T14:01:44;101326.86;;;13.95;69.01
44044;BME280;29709;52.396;16.796;2024-03-22T14:05:00;101323.02;;;14.04;68.61
44044;BME280;29709;52.396;16.796;2024-03-22T14:08:14;101316.11;;;14.08;68.04
44044;BME280;29709;52.396;16.796;2024-03-22T14:11:28;101302.63;;;14.05;68.05
44044;BME280;29709;52.396;16.796;2024-03-22T14:14:43;101293.85;;;14.02;67.65
44044;BME280;29709;52.396;16.796;2024-03-22T14:17:57;101283.68;;;13.94;67.59
44044;BME280;29709;52.396;16.796;2024-03-22T14:21:10;101284.20;;;13.98;67.71
44044;BME280;29709;52.396;16.796;2024-03-22T14:24:33;101284.70;;;14.01;67.47
44044;BME280;29709;52.396;16.796;2024-03-22T14:27:46;101277.94;;;14.04;67.72
44044;BME280;29709;52.396;16.796;2024-03-22T14:31:00;101286.57;;;14.09;67.35
44044;BME280;29709;52.396;16.796;2024-03-22T14:34:13;101273.92;;;14.14;67.38
44044;BME280;29709;52.396;16.796;2024-03-22T14:37:26;101273.92;;;14.14;66.10
44044;BME280;29709;52.396;16.796;2024-03-22T14:40:40;101267.34;;;14.15;65.71
44044;BME280;29709;52.396;16.796;2024-03-22T14:43:53;101267.34;;;14.15;65.40
44044;BME280;29709;52.396;16.796;2024-03-22T14:47:07;101261.81;;;14.15;65.07
44044;BME280;29709;52.396;16.796;2024-03-22T14:50:21;101257.67;;;14.20;65.05
44044;BME280;29709;52.396;16.796;2024-03-22T14:53:39;101255.58;;;14.22;64.84
44044;BME280;29709;52.396;16.796;2024-03-22T14:56:52;101256.43;;;14.22;65.55
44044;BME280;29709;52.396;16.796;2024-03-22T15:00:07;101260.92;;;14.23;66.02
44044;BME280;29709;52.396;16.796;2024-03-22T15:03:25;101253.00;;;14.20;67.13
44044;BME280;29709;52.396;16.796;2024-03-22T15:06:39;101248.37;;;14.12;67.93
44044;BME280;29709;52.396;16.796;2024-03-22T15:09:52;101251.50;;;14.09;68.44
44044;BME280;29709;52.396;16.796;2024-03-22T15:13:05;101235.99;;;14.00;69.72
44044;BME280;29709;52.396;16.796;2024-03-22T15:16:19;101239.47;;;13.94;69.64
44044;BME280;29709;52.396;16.796;2024-03-22T15:19:32;101232.77;;;13.89;70.06
44044;BME280;29709;52.396;16.796;2024-03-22T15:22:47;101231.57;;;13.83;70.04
44044;BME280;29709;52.396;16.796;2024-03-22T15:26:00;101234.03;;;13.78;70.53
44044;BME280;29709;52.396;16.796;2024-03-22T15:29:13;101233.35;;;13.76;70.77
44044;BME280;29709;52.396;16.796;2024-03-22T15:32:27;101228.89;;;13.67;72.00
44044;BME280;29709;52.396;16.796;2024-03-22T15:35:41;101234.07;;;13.62;72.59
44044;BME280;29709;52.396;16.796;2024-03-22T15:39:02;101220.98;;;13.55;73.26
44044;BME280;29709;52.396;16.796;2024-03-22T15:42:17;101221.85;;;13.56;73.92
44044;BME280;29709;52.396;16.796;2024-03-22T15:45:31;101214.75;;;13.53;74.99
44044;BME280;29709;52.396;16.796;2024-03-22T15:48:46;101215.12;;;13.50;75.12
44044;BME280;29709;52.396;16.796;2024-03-22T15:51:59;101209.62;;;13.42;76.03
44044;BME280;29709;52.396;16.796;2024-03-22T15:55:13;101207.91;;;13.33;76.75
44044;BME280;29709;52.396;16.796;2024-03-22T15:58:27;101203.61;;;13.31;77.49
44044;BME280;29709;52.396;16.796;2024-03-22T16:01:42;101203.79;;;13.29;77.88
44044;BME280;29709;52.396;16.796;2024-03-22T16:04:56;101200.36;;;13.27;79.44
44044;BME280;29709;52.396;16.796;2024-03-22T16:08:09;101185.70;;;13.26;78.40
44044;BME280;29709;52.396;16.796;2024-03-22T16:11:23;101183.61;;;13.28;78.58
44044;BME280;29709;52.396;16.796;2024-03-22T16:14:36;101180.17;;;13.26;78.96
44044;BME280;29709;52.396;16.796;2024-03-22T16:17:51;101180.01;;;13.20;79.45
44044;BME280;29709;52.396;16.796;2024-03-22T16:21:05;101188.61;;;13.17;79.98
44044;BME280;29709;52.396;16.796;2024-03-22T16:24:18;101192.59;;;13.14;80.14
44044;BME280;29709;52.396;16.796;2024-03-22T16:27:33;101186.72;;;13.09;80.49
44044;BME280;29709;52.396;16.796;2024-03-22T16:30:51;101183.47;;;13.06;81.33
44044;BME280;29709;52.396;16.796;2024-03-22T16:34:05;101187.27;;;13.05;80.99
44044;BME280;29709;52.396;16.796;2024-03-22T16:37:19;101182.78;;;13.04;81.22
44044;BME280;29709;52.396;16.796;2024-03-22T16:40:33;101182.43;;;12.98;81.55
44044;BME280;29709;52.396;16.796;2024-03-22T16:43:46;101184.34;;;12.98;81.74